sensor_id;sensor_type;location;lat;lon;timestamp;pressure;altitude;pressure_sealevel;temperature;humidity
42385;BME280;28042;43.986;22.860;2023-10-08T00:01:48;101471.66;;;15.27;58.64
42385;BME280;28042;43.986;22.860;2023-10-08T00:04:16;101467.44;;;15.25;59.02
42385;BME280;28042;43.986;22.860;2023-10-08T00:06:44;101461.94;;;15.25;58.72
42385;BME280;28042;43.986;22.860;2023-10-08T00:09:10;101462.81;;;15.32;58.63
42385;BME280;28042;43.986;22.860;2023-10-08T00:11:36;101463.44;;;15.34;58.42
42385;BME280;28042;43.986;22.860;2023-10-08T00:14:02;101456.88;;;15.35;58.57
42385;BME280;28042;43.986;22.860;2023-10-08T00:16:30;101451.81;;;15.32;58.66
42385;BME280;28042;43.986;22.860;2023-10-08T00:18:58;101443.13;;;15.35;58.59
42385;BME280;28042;43.986;22.860;2023-10-08T00:21:28;101443.31;;;15.27;59.04
42385;BME280;28042;43.986;22.860;2023-10-08T00:23:56;101437.84;;;15.20;59.51
42385;BME280;28042;43.986;22.860;2023-10-08T00:26:25;101432.53;;;15.19;59.62
42385;BME280;28042;43.986;22.860;2023-10-08T00:29:02;101439.09;;;15.11;60.22
42385;BME280;28042;43.986;22.860;2023-10-08T00:31:46;101433.59;;;15.05;60.22
42385;BME280;28042;43.986;22.860;2023-10-08T00:34:13;101439.06;;;14.98;60.54
42385;BME280;28042;43.986;22.860;2023-10-08T00:36:39;101421.94;;;14.89;60.80
42385;BME280;28042;43.986;22.860;2023-10-08T00:39:06;101434.00;;;14.88;60.92
42385;BME280;28042;43.986;22.860;2023-10-08T00:41:42;101426.38;;;14.77;61.41
42385;BME280;28042;43.986;22.860;2023-10-08T00:44:11;101430.13;;;14.76;61.53
42385;BME280;28042;43.986;22.860;2023-10-08T00:46:54;101427.59;;;14.68;61.80
42385;BME280;28042;43.986;22.860;2023-10-08T00:49:22;101426.75;;;14.74;61.85
42385;BME280;28042;43.986;22.860;2023-10-08T00:52:00;101429.72;;;14.73;61.99
42385;BME280;28042;43.986;22.860;2023-10-08T00:54:28;101421.66;;;14.64;62.28
42385;BME280;28042;43.986;22.860;2023-10-08T00:56:57;101426.28;;;14.57;62.47
42385;BME280;28042;43.986;22.860;2023-10-08T00:59:23;101422.47;;;14.45;63.14
42385;BME280;28042;43.986;22.860;2023-10-08T01:01:50;101421.13;;;14.34;63.40
42385;BME280;28042;43.986;22.860;2023-10-08T01:04:30;101421.06;;;14.21;64.32
42385;BME280;28042;43.986;22.860;2023-10-08T01:06:59;101423.75;;;14.14;64.49
42385;BME280;28042;43.986;22.860;2023-10-08T01:09:28;101425.59;;;14.01;65.03
42385;BME280;28042;43.986;22.860;2023-10-08T01:12:18;101419.66;;;13.91;65.68
42385;BME280;28042;43.986;22.860;2023-10-08T01:14:51;101428.03;;;13.82;65.99
42385;BME280;28042;43.986;22.860;2023-10-08T01:17:19;101422.50;;;13.76;66.65
42385;BME280;28042;43.986;22.860;2023-10-08T01:19:45;101424.13;;;13.70;66.67
42385;BME280;28042;43.986;22.860;2023-10-08T01:22:12;101430.81;;;13.61;67.14
42385;BME280;28042;43.986;22.860;2023-10-08T01:24:45;101427.44;;;13.59;67.58
42385;BME280;28042;43.986;22.860;2023-10-08T01:27:17;101421.53;;;13.55;67.61
42385;BME280;28042;43.986;22.860;2023-10-08T01:29:52;101425.63;;;13.45;68.97
42385;BME280;28042;43.986;22.860;2023-10-08T01:32:18;101417.88;;;13.48;68.33
42385;BME280;28042;43.986;22.860;2023-10-08T01:34:44;101426.94;;;13.49;68.48
42385;BME280;28042;43.986;22.860;2023-10-08T01:37:17;101416.38;;;13.46;69.10
42385;BME280;28042;43.986;22.860;2023-10-08T01:39:45;101417.63;;;13.43;69.37
42385;BME280;28042;43.986;22.860;2023-10-08T01:42:11;101412.59;;;13.47;68.83
42385;BME280;28042;43.986;22.860;2023-10-08T01:44:49;101402.72;;;13.52;68.44
42385;BME280;28042;43.986;22.860;2023-10-08T01:47:15;101406.66;;;13.43;69.39
42385;BME280;28042;43.986;22.860;2023-10-08T01:49:44;101410.44;;;13.42;69.31
42385;BME280;28042;43.986;22.860;2023-10-08T01:52:11;101406.44;;;13.45;69.64
42385;BME280;28042;43.986;22.860;2023-10-08T01:54:43;101416.38;;;13.46;69.69
42385;BME280;28042;43.986;22.860;2023-10-08T01:57:09;101399.91;;;13.39;70.29
42385;BME280;28042;43.986;22.860;2023-10-08T01:59:35;101409.16;;;13.38;71.00
42385;BME280;28042;43.986;22.860;2023-10-08T02:02:03;101391.63;;;13.33;70.95
42385;BME280;28042;43.986;22.860;2023-10-08T02:04:30;101395.63;;;13.37;70.87
42385;BME280;28042;43.986;22.860;2023-10-08T02:06:56;101396.47;;;13.31;70.88
42385;BME280;28042;43.986;22.860;2023-10-08T02:09:21;101406.31;;;13.25;71.01
42385;BME280;28042;43.986;22.860;2023-10-08T02:11:51;101403.97;;;13.22;71.64
42385;BME280;28042;43.986;22.860;2023-10-08T02:14:18;101406.56;;;13.30;71.44
42385;BME280;28042;43.986;22.860;2023-10-08T02:16:45;101402.56;;;13.33;71.27
42385;BME280;28042;43.986;22.860;2023-10-08T02:19:10;101403.22;;;13.35;70.90
42385;BME280;28042;43.986;22.860;2023-10-08T02:21:39;101397.31;;;13.31;70.99
42385;BME280;28042;43.986;22.860;2023-10-08T02:24:07;101383.41;;;13.33;70.76
42385;BME280;28042;43.986;22.860;2023-10-08T02:26:34;101396.94;;;13.41;70.64
42385;BME280;28042;43.986;22.860;2023-10-08T02:29:01;101387.41;;;13.37;70.59
42385;BME280;28042;43.986;22.860;2023-10-08T02:31:29;101381.72;;;13.32;71.38
42385;BME280;28042;43.986;22.860;2023-10-08T02:33:54;101379.59;;;13.34;71.15
42385;BME280;28042;43.986;22.860;2023-10-08T02:36:19;101380.81;;;13.24;72.39
42385;BME280;28042;43.986;22.860;2023-10-08T02:38:44;101381.97;;;13.15;72.95
42385;BME280;28042;43.986;22.860;2023-10-08T02:41:15;101374.09;;;13.06;75.02
42385;BME280;28042;43.986;22.860;2023-10-08T02:43:40;101376.34;;;13.02;75.66
42385;BME280;28042;43.986;22.860;2023-10-08T02:46:07;101378.06;;;13.03;76.26
42385;BME280;28042;43.986;22.860;2023-10-08T02:48:35;101393.19;;;12.99;77.06
42385;BME280;28042;43.986;22.860;2023-10-08T02:51:00;101387.19;;;12.89;77.70
42385;BME280;28042;43.986;22.860;2023-10-08T02:53:38;101380.41;;;12.85;78.06
42385;BME280;28042;43.986;22.860;2023-10-08T02:56:06;101371.94;;;12.80;78.23
42385;BME280;28042;43.986;22.860;2023-10-08T02:58:37;101375.25;;;12.75;78.49
42385;BME280;28042;43.986;22.860;2023-10-08T03:01:04;101371.44;;;12.69;78.35
42385;BME280;28042;43.986;22.860;2023-10-08T03:03:29;101366.00;;;12.76;77.67
42385;BME280;28042;43.986;22.860;2023-10-08T03:05:54;101364.78;;;12.79;77.46
42385;BME280;28042;43.986;22.860;2023-10-08T03:08:22;101364.88;;;12.92;77.30
42385;BME280;28042;43.986;22.860;2023-10-08T03:10:48;101357.19;;;13.02;76.86
42385;BME280;28042;43.986;22.860;2023-10-08T03:13:17;101365.03;;;13.05;76.37
42385;BME280;28042;43.986;22.860;2023-10-08T03:15:42;101358.91;;;13.03;76.58
42385;BME280;28042;43.986;22.860;2023-10-08T03:18:26;101353.81;;;13.00;76.50
42385;BME280;28042;43.986;22.860;2023-10-08T03:21:01;101351.19;;;13.13;75.93
42385;BME280;28042;43.986;22.860;2023-10-08T03:23:29;101348.78;;;13.25;75.28
42385;BME280;28042;43.986;22.860;2023-10-08T03:26:02;101352.75;;;13.50;73.39
42385;BME280;28042;43.986;22.860;2023-10-08T03:28:30;101336.41;;;13.70;72.53
42385;BME280;28042;43.986;22.860;2023-10-08T03:31:00;101334.53;;;13.77;71.95
42385;BME280;28042;43.986;22.860;2023-10-08T03:33:35;101338.41;;;13.96;70.83
42385;BME280;28042;43.986;22.860;2023-10-08T03:36:05;101340.38;;;14.09;69.69
42385;BME280;28042;43.986;22.860;2023-10-08T03:38:45;101347.59;;;14.23;68.92
42385;BME280;28042;43.986;22.860;2023-10-08T03:41:15;101334.13;;;14.35;68.17
42385;BME280;28042;43.986;22.860;2023-10-08T03:43:44;101331.00;;;14.45;67.64
42385;BME280;28042;43.986;22.860;2023-10-08T03:46:29;101336.31;;;14.53;67.16
42385;BME280;28042;43.986;22.860;2023-10-08T03:48:55;101330.44;;;14.69;66.57
42385;BME280;28042;43.986;22.860;2023-10-08T03:51:22;101323.22;;;14.68;66.67
42385;BME280;28042;43.986;22.860;2023-10-08T03:53:51;101329.19;;;14.78;66.02
42385;BME280;28042;43.986;22.860;2023-10-08T03:56:34;101324.09;;;14.75;65.99
42385;BME280;28042;43.986;22.860;2023-10-08T03:59:02;101319.44;;;14.82;65.43
42385;BME280;28042;43.986;22.860;2023-10-08T04:01:37;101314.81;;;14.89;65.13
42385;BME280;28042;43.986;22.860;2023-10-08T04:04:05;101318.63;;;14.88;65.11
42385;BME280;28042;43.986;22.860;2023-10-08T04:06:30;101317.78;;;14.94;64.77
42385;BME280;28042;43.986;22.860;2023-10-08T04:09:02;101299.38;;;15.02;64.26
42385;BME280;28042;43.986;22.860;2023-10-08T04:11:34;101300.41;;;15.01;64.49
42385;BME280;28042;43.986;22.860;2023-10-08T04:14:14;101300.84;;;14.97;64.68
42385;BME280;28042;43.986;22.860;2023-10-08T04:16:41;101296.41;;;14.96;64.50
42385;BME280;28042;43.986;22.860;2023-10-08T04:19:07;101296.41;;;14.96;64.73
42385;BME280;28042;43.986;22.860;2023-10-08T04:21:32;101288.38;;;15.02;64.71
42385;BME280;28042;43.986;22.860;2023-10-08T04:23:59;101283.09;;;15.00;64.69
42385;BME280;28042;43.986;22.860;2023-10-08T04:26:28;101283.94;;;15.01;64.59
42385;BME280;28042;43.986;22.860;2023-10-08T04:28:53;101285.22;;;15.05;64.55
42385;BME280;28042;43.986;22.860;2023-10-08T04:31:25;101285.41;;;15.10;64.12
42385;BME280;28042;43.986;22.860;2023-10-08T04:33:53;101282.03;;;15.21;63.68
42385;BME280;28042;43.986;22.860;2023-10-08T04:36:19;101283.88;;;15.40;62.58
42385;BME280;28042;43.986;22.860;2023-10-08T04:38:45;101277.91;;;15.57;61.61
42385;BME280;28042;43.986;22.860;2023-10-08T04:41:13;101277.00;;;15.82;60.05
42385;BME280;28042;43.986;22.860;2023-10-08T04:43:42;101280.72;;;16.01;59.12
42385;BME280;28042;43.986;22.860;2023-10-08T04:46:08;101280.63;;;16.15;58.52
42385;BME280;28042;43.986;22.860;2023-10-08T04:48:59;101278.66;;;16.28;57.51
42385;BME280;28042;43.986;22.860;2023-10-08T04:51:24;101279.53;;;16.54;56.05
42385;BME280;28042;43.986;22.860;2023-10-08T04:53:49;101275.22;;;16.64;55.42
42385;BME280;28042;43.986;22.860;2023-10-08T04:56:15;101267.84;;;16.90;53.82
42385;BME280;28042;43.986;22.860;2023-10-08T04:58:47;101276.66;;;16.99;53.42
42385;BME280;28042;43.986;22.860;2023-10-08T05:01:16;101267.13;;;17.19;52.37
42385;BME280;28042;43.986;22.860;2023-10-08T05:04:00;101275.50;;;17.31;51.34
42385;BME280;28042;43.986;22.860;2023-10-08T05:06:26;101269.81;;;17.44;50.74
42385;BME280;28042;43.986;22.860;2023-10-08T05:09:03;101272.28;;;17.52;50.32
42385;BME280;28042;43.986;22.860;2023-10-08T05:11:48;101262.75;;;17.73;49.29
42385;BME280;28042;43.986;22.860;2023-10-08T05:14:17;101275.59;;;17.79;49.17
42385;BME280;28042;43.986;22.860;2023-10-08T05:16:55;101278.75;;;17.83;48.81
42385;BME280;28042;43.986;22.860;2023-10-08T05:19:35;101271.59;;;17.94;48.26
42385;BME280;28042;43.986;22.860;2023-10-08T05:22:09;101263.34;;;18.05;48.14
42385;BME280;28042;43.986;22.860;2023-10-08T05:24:58;101263.88;;;18.14;47.34
42385;BME280;28042;43.986;22.860;2023-10-08T05:27:43;101270.31;;;18.26;46.89
42385;BME280;28042;43.986;22.860;2023-10-08T05:30:15;101267.53;;;18.26;46.78
42385;BME280;28042;43.986;22.860;2023-10-08T05:32:43;101271.66;;;18.35;46.60
42385;BME280;28042;43.986;22.860;2023-10-08T05:35:31;101272.75;;;18.46;46.25
42385;BME280;28042;43.986;22.860;2023-10-08T05:38:05;101271.59;;;18.54;45.46
42385;BME280;28042;43.986;22.860;2023-10-08T05:40:50;101270.59;;;18.48;45.38
42385;BME280;28042;43.986;22.860;2023-10-08T05:43:22;101271.19;;;18.69;44.92
42385;BME280;28042;43.986;22.860;2023-10-08T05:48:46;101266.75;;;19.03;43.22
42385;BME280;28042;43.986;22.860;2023-10-08T05:51:26;101269.88;;;19.18;42.55
42385;BME280;28042;43.986;22.860;2023-10-08T05:54:09;101267.59;;;19.27;42.64
42385;BME280;28042;43.986;22.860;2023-10-08T05:56:50;101266.00;;;19.42;42.00
42385;BME280;28042;43.986;22.860;2023-10-08T05:59:34;101261.91;;;19.68;41.37
42385;BME280;28042;43.986;22.860;2023-10-08T06:02:24;101265.06;;;20.00;41.11
42385;BME280;28042;43.986;22.860;2023-10-08T06:05:02;101262.16;;;20.24;40.60
42385;BME280;28042;43.986;22.860;2023-10-08T06:07:41;101273.34;;;20.29;40.32
42385;BME280;28042;43.986;22.860;2023-10-08T06:10:35;101265.03;;;20.29;40.54
42385;BME280;28042;43.986;22.860;2023-10-08T06:13:04;101261.38;;;20.40;40.64
42385;BME280;28042;43.986;22.860;2023-10-08T06:15:42;101264.53;;;20.32;40.39
42385;BME280;28042;43.986;22.860;2023-10-08T06:18:26;101262.84;;;20.31;40.19
42385;BME280;28042;43.986;22.860;2023-10-08T06:20:52;101265.56;;;20.26;40.27
42385;BME280;28042;43.986;22.860;2023-10-08T06:23:21;101275.78;;;20.25;40.51
42385;BME280;28042;43.986;22.860;2023-10-08T06:25:48;101281.66;;;20.29;40.32
42385;BME280;28042;43.986;22.860;2023-10-08T06:28:19;101278.50;;;20.37;40.48
42385;BME280;28042;43.986;22.860;2023-10-08T06:30:48;101270.78;;;20.39;40.21
42385;BME280;28042;43.986;22.860;2023-10-08T06:33:14;101279.81;;;20.46;40.24
42385;BME280;28042;43.986;22.860;2023-10-08T06:35:40;101283.53;;;20.52;39.46
42385;BME280;28042;43.986;22.860;2023-10-08T06:38:10;101278.25;;;20.50;39.48
42385;BME280;28042;43.986;22.860;2023-10-08T06:40:35;101285.53;;;20.56;38.75
42385;BME280;28042;43.986;22.860;2023-10-08T06:43:01;101285.53;;;20.56;37.93
42385;BME280;28042;43.986;22.860;2023-10-08T06:45:45;101276.22;;;20.63;37.60
42385;BME280;28042;43.986;22.860;2023-10-08T06:48:12;101284.38;;;20.69;37.09
42385;BME280;28042;43.986;22.860;2023-10-08T06:50:48;101285.97;;;20.82;36.96
42385;BME280;28042;43.986;22.860;2023-10-08T06:53:14;101292.88;;;21.13;36.54
42385;BME280;28042;43.986;22.860;2023-10-08T06:55:42;101292.69;;;21.20;35.94
42385;BME280;28042;43.986;22.860;2023-10-08T06:58:08;101291.22;;;21.29;36.12
42385;BME280;28042;43.986;22.860;2023-10-08T07:00:34;101279.25;;;21.28;36.14
42385;BME280;28042;43.986;22.860;2023-10-08T07:03:12;101279.91;;;21.18;35.59
42385;BME280;28042;43.986;22.860;2023-10-08T07:05:46;101293.88;;;21.07;35.40
42385;BME280;28042;43.986;22.860;2023-10-08T07:08:31;101286.50;;;20.96;35.76
42385;BME280;28042;43.986;22.860;2023-10-08T07:10:57;101288.91;;;20.92;36.00
42385;BME280;28042;43.986;22.860;2023-10-08T07:13:24;101291.88;;;20.85;35.91
42385;BME280;28042;43.986;22.860;2023-10-08T07:15:50;101293.72;;;20.80;35.98
42385;BME280;28042;43.986;22.860;2023-10-08T07:18:16;101283.13;;;20.77;36.08
42385;BME280;28042;43.986;22.860;2023-10-08T07:20:50;101272.53;;;20.74;36.07
42385;BME280;28042;43.986;22.860;2023-10-08T07:23:19;101281.78;;;20.79;36.45
42385;BME280;28042;43.986;22.860;2023-10-08T07:25:46;101268.50;;;20.98;36.50
42385;BME280;28042;43.986;22.860;2023-10-08T07:28:17;101277.56;;;21.10;36.17
42385;BME280;28042;43.986;22.860;2023-10-08T07:30:44;101276.72;;;21.27;35.63
42385;BME280;28042;43.986;22.860;2023-10-08T07:33:10;101272.50;;;21.41;35.62
42385;BME280;28042;43.986;22.860;2023-10-08T07:35:46;101263.88;;;21.59;35.39
42385;BME280;28042;43.986;22.860;2023-10-08T07:38:22;101260.28;;;21.81;35.05
42385;BME280;28042;43.986;22.860;2023-10-08T07:40:47;101255.53;;;22.03;35.24
42385;BME280;28042;43.986;22.860;2023-10-08T07:43:13;101264.94;;;22.24;35.14
42385;BME280;28042;43.986;22.860;2023-10-08T07:45:38;101265.38;;;22.38;34.40
42385;BME280;28042;43.986;22.860;2023-10-08T07:48:04;101259.16;;;22.57;34.38
42385;BME280;28042;43.986;22.860;2023-10-08T07:50:34;101256.97;;;22.87;33.81
42385;BME280;28042;43.986;22.860;2023-10-08T07:53:03;101252.59;;;23.01;33.48
42385;BME280;28042;43.986;22.860;2023-10-08T07:55:29;101243.56;;;23.21;33.07
42385;BME280;28042;43.986;22.860;2023-10-08T07:57:57;101222.94;;;23.17;33.05
42385;BME280;28042;43.986;22.860;2023-10-08T08:00:23;101231.25;;;23.11;33.25
42385;BME280;28042;43.986;22.860;2023-10-08T08:02:51;101222.69;;;23.23;33.09
42385;BME280;28042;43.986;22.860;2023-10-08T08:05:17;101216.91;;;23.30;33.03
42385;BME280;28042;43.986;22.860;2023-10-08T08:07:43;101217.41;;;23.27;32.96
42385;BME280;28042;43.986;22.860;2023-10-08T08:10:11;101209.31;;;23.20;33.19
42385;BME280;28042;43.986;22.860;2023-10-08T08:12:36;101209.19;;;23.47;33.02
42385;BME280;28042;43.986;22.860;2023-10-08T08:15:02;101206.41;;;23.47;32.69
42385;BME280;28042;43.986;22.860;2023-10-08T08:17:39;101197.72;;;23.44;32.93
42385;BME280;28042;43.986;22.860;2023-10-08T08:20:05;101187.22;;;23.56;32.70
42385;BME280;28042;43.986;22.860;2023-10-08T08:22:42;101187.72;;;23.42;33.02
42385;BME280;28042;43.986;22.860;2023-10-08T08:25:14;101185.63;;;23.65;32.77
42385;BME280;28042;43.986;22.860;2023-10-08T08:27:58;101168.31;;;23.63;32.43
42385;BME280;28042;43.986;22.860;2023-10-08T08:30:25;101167.75;;;23.61;32.74
42385;BME280;28042;43.986;22.860;2023-10-08T08:32:51;101158.06;;;23.79;32.70
42385;BME280;28042;43.986;22.860;2023-10-08T08:35:17;101144.72;;;24.01;32.61
42385;BME280;28042;43.986;22.860;2023-10-08T08:37:43;101146.97;;;24.19;32.49
42385;BME280;28042;43.986;22.860;2023-10-08T08:40:09;101138.94;;;24.38;31.93
42385;BME280;28042;43.986;22.860;2023-10-08T08:42:42;101138.09;;;24.38;31.83
42385;BME280;28042;43.986;22.860;2023-10-08T08:45:09;101150.63;;;24.76;31.85
42385;BME280;28042;43.986;22.860;2023-10-08T08:47:36;101141.66;;;24.74;31.61
42385;BME280;28042;43.986;22.860;2023-10-08T08:50:02;101138.34;;;24.77;31.76
42385;BME280;28042;43.986;22.860;2023-10-08T08:52:34;101148.41;;;24.68;31.92
42385;BME280;28042;43.986;22.860;2023-10-08T08:55:00;101165.66;;;24.75;31.94
42385;BME280;28042;43.986;22.860;2023-10-08T08:57:28;101157.31;;;24.65;32.08
42385;BME280;28042;43.986;22.860;2023-10-08T08:59:53;101152.28;;;24.77;32.38
42385;BME280;28042;43.986;22.860;2023-10-08T09:02:20;101151.16;;;24.83;32.34
42385;BME280;28042;43.986;22.860;2023-10-08T09:04:47;101136.63;;;24.96;32.20
42385;BME280;28042;43.986;22.860;2023-10-08T09:07:13;101145.00;;;24.96;31.64
42385;BME280;28042;43.986;22.860;2023-10-08T09:09:38;101132.72;;;25.02;32.24
42385;BME280;28042;43.986;22.860;2023-10-08T09:12:04;101132.72;;;25.02;32.27
42385;BME280;28042;43.986;22.860;2023-10-08T09:14:30;101138.19;;;25.38;32.11
42385;BME280;28042;43.986;22.860;2023-10-08T09:16:57;101133.38;;;25.44;31.88
42385;BME280;28042;43.986;22.860;2023-10-08T09:19:24;101134.84;;;25.31;32.18
42385;BME280;28042;43.986;22.860;2023-10-08T09:24:29;101133.19;;;25.25;31.79
42385;BME280;28042;43.986;22.860;2023-10-08T09:26:54;101127.59;;;25.30;32.14
42385;BME280;28042;43.986;22.860;2023-10-08T09:29:24;101137.41;;;25.22;31.94
42385;BME280;28042;43.986;22.860;2023-10-08T09:31:55;101148.28;;;25.29;32.37
42385;BME280;28042;43.986;22.860;2023-10-08T09:34:30;101152.44;;;25.31;32.03
42385;BME280;28042;43.986;22.860;2023-10-08T09:36:56;101131.53;;;25.19;32.41
42385;BME280;28042;43.986;22.860;2023-10-08T09:39:21;101128.44;;;25.25;32.27
42385;BME280;28042;43.986;22.860;2023-10-08T09:41:51;101117.72;;;25.48;31.79
42385;BME280;28042;43.986;22.860;2023-10-08T09:44:18;101138.69;;;25.45;31.69
42385;BME280;28042;43.986;22.860;2023-10-08T09:46:44;101114.13;;;25.42;31.79
42385;BME280;28042;43.986;22.860;2023-10-08T09:49:13;101123.31;;;25.48;31.82
42385;BME280;28042;43.986;22.860;2023-10-08T09:51:39;101117.44;;;25.54;31.49
42385;BME280;28042;43.986;22.860;2023-10-08T09:54:09;101122.94;;;25.64;31.68
42385;BME280;28042;43.986;22.860;2023-10-08T09:56:35;101116.22;;;25.71;31.53
42385;BME280;28042;43.986;22.860;2023-10-08T09:59:01;101118.69;;;25.82;31.64
42385;BME280;28042;43.986;22.860;2023-10-08T10:01:26;101113.91;;;25.83;31.05
42385;BME280;28042;43.986;22.860;2023-10-08T10:03:52;101117.78;;;25.87;31.37
42385;BME280;28042;43.986;22.860;2023-10-08T10:06:18;101111.19;;;25.68;31.33
42385;BME280;28042;43.986;22.860;2023-10-08T10:08:44;101095.56;;;25.72;31.64
42385;BME280;28042;43.986;22.860;2023-10-08T10:11:10;101105.47;;;25.88;31.66
42385;BME280;28042;43.986;22.860;2023-10-08T10:13:39;101098.81;;;25.84;31.43
42385;BME280;28042;43.986;22.860;2023-10-08T10:16:06;101102.66;;;25.93;31.35
42385;BME280;28042;43.986;22.860;2023-10-08T10:18:34;101087.97;;;26.11;31.43
42385;BME280;28042;43.986;22.860;2023-10-08T10:23:55;101098.69;;;26.38;30.76
42385;BME280;28042;43.986;22.860;2023-10-08T10:26:22;101093.81;;;26.49;30.46
42385;BME280;28042;43.986;22.860;2023-10-08T10:31:32;101077.41;;;26.66;30.20
42385;BME280;28042;43.986;22.860;2023-10-08T10:34:04;101072.78;;;26.81;29.56
42385;BME280;28042;43.986;22.860;2023-10-08T10:36:29;101085.50;;;26.92;29.54
42385;BME280;28042;43.986;22.860;2023-10-08T10:38:56;101051.16;;;27.10;29.17
42385;BME280;28042;43.986;22.860;2023-10-08T10:41:22;101061.09;;;27.21;29.18
42385;BME280;28042;43.986;22.860;2023-10-08T10:43:47;101046.44;;;27.29;28.78
42385;BME280;28042;43.986;22.860;2023-10-08T10:46:17;101051.25;;;27.43;28.50
42385;BME280;28042;43.986;22.860;2023-10-08T10:48:56;101053.44;;;27.27;28.89
42385;BME280;28042;43.986;22.860;2023-10-08T10:51:51;101044.47;;;27.49;28.70
42385;BME280;28042;43.986;22.860;2023-10-08T10:54:25;101049.06;;;27.21;28.89
42385;BME280;28042;43.986;22.860;2023-10-08T10:56:52;101024.91;;;27.44;29.10
42385;BME280;28042;43.986;22.860;2023-10-08T10:59:34;101016.28;;;27.40;28.63
42385;BME280;28042;43.986;22.860;2023-10-08T11:02:05;101019.00;;;27.64;29.10
42385;BME280;28042;43.986;22.860;2023-10-08T11:04:34;101015.22;;;27.55;28.83
42385;BME280;28042;43.986;22.860;2023-10-08T11:07:12;101019.25;;;27.68;28.95
42385;BME280;28042;43.986;22.860;2023-10-08T11:09:38;101015.97;;;27.60;28.97
42385;BME280;28042;43.986;22.860;2023-10-08T11:12:04;101024.03;;;27.67;29.20
42385;BME280;28042;43.986;22.860;2023-10-08T11:14:39;101002.63;;;27.71;28.41
42385;BME280;28042;43.986;22.860;2023-10-08T11:17:17;101002.19;;;27.64;28.85
42385;BME280;28042;43.986;22.860;2023-10-08T11:19:44;101004.16;;;27.82;28.72
42385;BME280;28042;43.986;22.860;2023-10-08T11:22:12;101009.41;;;28.03;28.56
42385;BME280;28042;43.986;22.860;2023-10-08T11:24:41;100998.56;;;27.96;28.26
42385;BME280;28042;43.986;22.860;2023-10-08T11:27:08;100982.19;;;28.03;28.11
42385;BME280;28042;43.986;22.860;2023-10-08T11:29:43;100988.16;;;28.15;27.89
42385;BME280;28042;43.986;22.860;2023-10-08T11:32:09;100986.50;;;28.28;28.04
42385;BME280;28042;43.986;22.860;2023-10-08T11:34:37;100977.16;;;27.86;27.76
42385;BME280;28042;43.986;22.860;2023-10-08T11:37:04;100980.16;;;27.57;28.46
42385;BME280;28042;43.986;22.860;2023-10-08T11:39:39;100968.34;;;27.23;28.64
42385;BME280;28042;43.986;22.860;2023-10-08T11:42:10;100969.19;;;27.23;29.01
42385;BME280;28042;43.986;22.860;2023-10-08T11:45:02;100956.00;;;27.05;29.18
42385;BME280;28042;43.986;22.860;2023-10-08T11:48:05;100964.59;;;26.90;29.59
42385;BME280;28042;43.986;22.860;2023-10-08T11:50:37;100962.31;;;26.92;29.29
42385;BME280;28042;43.986;22.860;2023-10-08T11:53:05;100955.19;;;26.81;29.54
42385;BME280;28042;43.986;22.860;2023-10-08T11:55:34;100967.56;;;26.74;29.25
42385;BME280;28042;43.986;22.860;2023-10-08T11:58:01;100932.56;;;26.77;29.28
42385;BME280;28042;43.986;22.860;2023-10-08T12:00:27;100934.97;;;26.84;29.44
42385;BME280;28042;43.986;22.860;2023-10-08T12:02:52;100942.44;;;26.93;29.15
42385;BME280;28042;43.986;22.860;2023-10-08T12:05:21;100958.44;;;27.30;28.87
42385;BME280;28042;43.986;22.860;2023-10-08T12:07:50;100971.50;;;27.35;28.79
42385;BME280;28042;43.986;22.860;2023-10-08T12:10:17;100969.69;;;27.44;28.51
42385;BME280;28042;43.986;22.860;2023-10-08T12:12:47;100949.16;;;27.49;28.55
42385;BME280;28042;43.986;22.860;2023-10-08T12:15:13;100938.41;;;27.56;28.92
42385;BME280;28042;43.986;22.860;2023-10-08T12:17:45;100946.72;;;27.61;28.49
42385;BME280;28042;43.986;22.860;2023-10-08T12:20:18;100951.06;;;27.72;28.03
42385;BME280;28042;43.986;22.860;2023-10-08T12:22:49;100929.66;;;27.76;28.02
42385;BME280;28042;43.986;22.860;2023-10-08T12:25:15;100934.13;;;27.77;27.77
42385;BME280;28042;43.986;22.860;2023-10-08T12:27:40;100930.81;;;27.75;27.78
42385;BME280;28042;43.986;22.860;2023-10-08T12:30:06;100941.28;;;27.70;27.82
42385;BME280;28042;43.986;22.860;2023-10-08T12:32:35;100943.16;;;27.74;28.01
42385;BME280;28042;43.986;22.860;2023-10-08T12:35:03;100918.75;;;27.75;28.11
42385;BME280;28042;43.986;22.860;2023-10-08T12:37:28;100924.59;;;27.78;27.73
42385;BME280;28042;43.986;22.860;2023-10-08T12:39:55;100959.59;;;27.81;27.61
42385;BME280;28042;43.986;22.860;2023-10-08T12:42:36;100935.00;;;28.05;27.96
42385;BME280;28042;43.986;22.860;2023-10-08T12:45:04;100944.41;;;28.28;27.86
42385;BME280;28042;43.986;22.860;2023-10-08T12:47:37;100951.09;;;28.32;27.62
42385;BME280;28042;43.986;22.860;2023-10-08T12:50:02;100954.44;;;28.34;27.36
42385;BME280;28042;43.986;22.860;2023-10-08T12:52:32;100938.78;;;28.28;27.60
42385;BME280;28042;43.986;22.860;2023-10-08T12:55:00;100963.91;;;28.06;27.69
42385;BME280;28042;43.986;22.860;2023-10-08T12:57:29;100959.97;;;28.07;27.37
42385;BME280;28042;43.986;22.860;2023-10-08T12:59:58;100957.75;;;27.90;27.79
42385;BME280;28042;43.986;22.860;2023-10-08T13:02:24;100983.31;;;27.70;28.45
42385;BME280;28042;43.986;22.860;2023-10-08T13:04:53;100965.75;;;27.64;28.74
42385;BME280;28042;43.986;22.860;2023-10-08T13:07:20;100959.00;;;27.65;28.66